Albany, Indiana
Current Conditions -  °F | °C
As of 11:53 AM on Thursday 23 Oct 2014 (Local Time) from KMIE Reporting Station
Clear Clear  
Wind Chill: 52°   Ceiling: Unl
Heat Index: 52°   Visibility: 10mi
Dew Point: 41°   Wind: 3mph
Humidity: 66%   Direction: NA
Pressure: 30.25"   Gusts: NA
Location:  40.3°N, 85.24°W
Report Text: KMIE 231553Z VRB03KT 10SM CLR 11/05 A3025 RMK AO2 SLP244 T01110050
Loading
Personal Weather Stations






























Interactive Weather Map New forecast layout! Learn more

10-Day Weather Forecast

Advertisements
Track Severe Weather on mobile